Time;durP1;ratioP1;P1;durP2;ratioP2;P2;SDS_P1;SDS_P2;PMS_P1;PMS_P2;Temp;Humidity;BMP_temperature;BMP_pressure;BME280_temperature;BME280_humidity;BME280_pressure;Samples;Min_cycle;Max_cycle;Signal;HPM_P1;HPM_P2
2021/06/23 00:00:51;;;;;;;14.57;3.70;;;14.20;82.90;;;;;;5031486;28;20181;-83
2021/06/23 00:03:16;;;;;;;13.57;4.57;;;14.00;84.00;;;;;;5031460;28;20180;-82
2021/06/23 00:05:42;;;;;;;12.17;3.93;;;14.00;85.10;;;;;;5099732;28;20234;-82
2021/06/23 00:08:08;;;;;;;12.10;4.07;;;14.10;84.60;;;;;;5031353;28;20201;-83
2021/06/23 00:10:33;;;;;;;15.23;4.27;;;14.10;85.20;;;;;;5100787;28;20636;-83
2021/06/23 00:13:08;;;;;;;12.67;4.73;;;14.10;84.70;;;;;;5032811;28;20177;-82
2021/06/23 00:15:34;;;;;;;18.57;4.40;;;14.00;85.50;;;;;;5031293;28;20528;-82
2021/06/23 00:18:02;;;;;;;17.37;5.23;;;14.00;86.40;;;;;;5031146;28;20209;-82
2021/06/23 00:20:28;;;;;;;14.27;4.63;;;14.00;86.10;;;;;;5031275;28;20263;-82
2021/06/23 00:22:54;;;;;;;11.07;3.83;;;14.00;86.50;;;;;;5031146;28;20731;-82
2021/06/23 00:25:20;;;;;;;21.83;5.17;;;14.00;87.00;;;;;;5031103;28;20233;-82
2021/06/23 00:27:45;;;;;;;12.30;4.60;;;14.00;87.10;;;;;;5031172;28;20703;-84
2021/06/23 00:30:12;;;;;;;15.13;4.97;;;14.00;87.40;;;;;;5099082;28;20181;-82
2021/06/23 00:32:41;;;;;;;17.10;5.20;;;14.00;86.80;;;;;;5031252;28;20169;-83
2021/06/23 00:35:07;;;;;;;15.33;5.20;;;14.00;86.90;;;;;;5030995;28;20177;-83
2021/06/23 00:37:33;;;;;;;20.20;5.50;;;14.00;87.30;;;;;;5030823;28;20241;-83
2021/06/23 00:39:58;;;;;;;16.27;5.40;;;14.00;87.40;;;;;;5098978;28;20176;-82
2021/06/23 00:42:24;;;;;;;17.33;5.17;;;13.80;88.50;;;;;;5031333;28;20629;-82
2021/06/23 00:44:50;;;;;;;15.20;4.63;;;13.90;88.20;;;;;;5030745;28;20180;-82
2021/06/23 00:47:16;;;;;;;18.53;5.80;;;14.00;87.80;;;;;;5098773;28;20188;-83
2021/06/23 00:49:42;;;;;;;25.77;6.10;;;14.00;87.60;;;;;;5029891;28;20177;-83
2021/06/23 00:52:08;;;;;;;17.80;5.23;;;13.90;88.40;;;;;;5030627;28;20249;-83
2021/06/23 00:54:34;;;;;;;17.33;6.23;;;13.90;88.60;;;;;;5032001;28;20176;-85
2021/06/23 00:57:05;;;;;;;22.63;6.50;;;13.80;89.40;;;;;;5032251;28;20179;-83
2021/06/23 00:59:31;;;;;;;14.67;5.60;;;13.80;89.80;;;;;;5098550;28;20566;-84
2021/06/23 01:01:59;;;;;;;11.43;5.03;;;13.80;89.30;;;;;;5030770;28;20271;-83
2021/06/23 01:04:25;;;;;;;14.47;5.30;;;14.00;89.10;;;;;;5030419;28;20233;-83
2021/06/23 01:06:51;;;;;;;12.23;5.13;;;14.20;88.90;;;;;;5098712;28;20555;-83
2021/06/23 01:09:17;;;;;;;14.00;5.57;;;14.20;88.50;;;;;;5030406;28;20196;-84
2021/06/23 01:12:22;;;;;;;11.40;5.17;;;14.20;88.50;;;;;;5098553;28;20212;-83
2021/06/23 01:14:52;;;;;;;16.57;5.17;;;14.30;88.50;;;;;;5041012;28;20189;-83
2021/06/23 01:17:20;;;;;;;13.47;5.27;;;14.40;88.20;;;;;;5030085;28;20177;-83
2021/06/23 01:19:46;;;;;;;11.80;5.50;;;14.40;87.90;;;;;;5030467;28;20160;-83
2021/06/23 01:22:14;;;;;;;13.23;5.80;;;14.30;87.80;;;;;;5030546;28;20180;-83
2021/06/23 01:24:41;;;;;;;10.00;4.70;;;14.30;88.20;;;;;;5030121;28;20199;-83
2021/06/23 01:27:07;;;;;;;12.83;5.60;;;14.40;88.20;;;;;;5098350;28;20682;-83
2021/06/23 01:29:33;;;;;;;12.93;5.33;;;14.40;87.60;;;;;;5030055;28;20275;-83
2021/06/23 01:31:59;;;;;;;18.87;6.20;;;14.40;87.70;;;;;;5030103;28;20688;-84
2021/06/23 01:34:24;;;;;;;15.03;5.60;;;14.40;87.90;;;;;;5030191;28;20217;-83
2021/06/23 01:36:50;;;;;;;11.13;5.83;;;14.40;87.70;;;;;;5030079;28;20255;-83
2021/06/23 01:39:15;;;;;;;9.07;4.57;;;14.50;87.60;;;;;;5098207;28;20193;-83
2021/06/23 01:41:41;;;;;;;12.93;5.03;;;14.50;87.70;;;;;;5030018;28;20256;-84
2021/06/23 01:44:07;;;;;;;14.50;5.57;;;14.50;87.70;;;;;;5029970;28;20176;-83
2021/06/23 01:46:32;;;;;;;9.93;5.07;;;14.50;87.90;;;;;;5098196;28;20173;-83
2021/06/23 01:48:58;;;;;;;15.17;7.37;;;14.50;88.00;;;;;;5029863;28;20660;-83
2021/06/23 01:51:24;;;;;;;15.57;5.67;;;14.50;88.00;;;;;;5029872;28;20201;-84
2021/06/23 01:53:50;;;;;;;18.43;5.70;;;14.50;88.00;;;;;;5029868;28;20177;-84
2021/06/23 01:56:15;;;;;;;16.20;5.77;;;14.50;88.00;;;;;;5029905;28;20241;-83
2021/06/23 01:58:43;;;;;;;15.20;5.37;;;14.50;87.90;;;;;;5030023;28;20196;-84
2021/06/23 02:01:08;;;;;;;18.70;6.00;;;14.50;87.70;;;;;;5032615;28;20177;-83
2021/06/23 02:04:06;;;;;;;21.67;5.90;;;14.50;87.70;;;;;;5033175;28;20187;-83
2021/06/23 02:06:47;;;;;;;20.80;6.13;;;14.40;88.20;;;;;;5033408;28;20165;-83
2021/06/23 02:09:44;;;;;;;15.00;5.53;;;14.30;88.40;;;;;;5033102;28;20252;-83
2021/06/23 02:12:22;;;;;;;14.90;5.60;;;14.30;88.20;;;;;;5033204;28;20184;-84
2021/06/23 02:14:51;;;;;;;19.00;6.53;;;14.30;88.60;;;;;;5033016;28;20204;-84
2021/06/23 02:17:17;;;;;;;18.33;6.83;;;14.30;88.60;;;;;;5101609;28;20594;-84
2021/06/23 02:19:47;;;;;;;15.13;5.97;;;14.30;88.80;;;;;;5033131;28;20177;-83
2021/06/23 02:22:15;;;;;;;17.00;6.47;;;14.30;88.70;;;;;;5101562;28;20172;-84
2021/06/23 02:24:42;;;;;;;24.00;7.67;;;14.30;88.70;;;;;;5032846;28;20227;-83
2021/06/23 02:27:08;;;;;;;27.07;7.83;;;14.30;88.80;;;;;;5032806;28;20185;-84
2021/06/23 02:29:35;;;;;;;22.87;6.53;;;14.20;89.20;;;;;;5032712;28;20204;-84
2021/06/23 02:32:01;;;;;;;22.53;6.73;;;14.20;89.30;;;;;;5032922;28;20229;-84
2021/06/23 02:34:27;;;;;;;20.77;6.33;;;14.20;89.40;;;;;;5032698;28;20169;-83
2021/06/23 02:36:53;;;;;;;16.87;6.40;;;14.30;89.30;;;;;;5101389;28;20176;-84
2021/06/23 02:39:19;;;;;;;35.07;6.03;;;14.30;89.00;;;;;;5032528;28;20650;-84
2021/06/23 02:41:45;;;;;;;27.50;6.20;;;14.30;89.20;;;;;;5032589;28;20637;-83
2021/06/23 02:44:11;;;;;;;19.47;7.07;;;14.30;89.10;;;;;;5101152;28;20186;-84
2021/06/23 02:46:37;;;;;;;23.53;7.10;;;14.20;89.40;;;;;;5101179;28;20271;-84
2021/06/23 02:49:03;;;;;;;16.17;6.63;;;14.10;89.80;;;;;;5032414;28;20192;-84
2021/06/23 02:51:37;;;;;;;26.90;7.43;;;14.20;89.70;;;;;;5032351;28;20203;-84
2021/06/23 02:54:03;;;;;;;23.67;7.23;;;14.10;89.60;;;;;;5032477;28;20173;-84
2021/06/23 02:56:29;;;;;;;30.77;6.80;;;14.10;89.80;;;;;;5032489;28;20683;-84
2021/06/23 02:58:56;;;;;;;19.47;6.83;;;14.00;90.00;;;;;;5032251;28;20197;-84
2021/06/23 03:01:21;;;;;;;28.40;7.53;;;14.00;90.20;;;;;;5032310;28;20254;-83
2021/06/23 03:03:48;;;;;;;20.70;6.90;;;14.10;89.80;;;;;;5032175;28;20649;-83
2021/06/23 03:06:13;;;;;;;16.00;6.17;;;14.10;89.40;;;;;;5032186;28;20177;-84
2021/06/23 03:08:39;;;;;;;25.30;6.00;;;14.20;89.30;;;;;;5100695;28;20201;-84
2021/06/23 03:11:06;;;;;;;24.03;6.67;;;14.10;89.20;;;;;;5031575;28;20220;-84
2021/06/23 03:13:32;;;;;;;16.20;5.43;;;14.00;89.40;;;;;;5100550;28;20177;-84
2021/06/23 03:15:58;;;;;;;16.27;6.90;;;14.00;89.30;;;;;;5032354;28;20259;-84
2021/06/23 03:18:24;;;;;;;25.40;6.10;;;14.10;89.20;;;;;;5113252;22;20381;-84
2021/06/23 03:20:50;;;;;;;23.33;6.37;;;14.00;89.40;;;;;;5012549;28;20597;-84
2021/06/23 03:23:17;;;;;;;22.73;5.93;;;13.90;89.60;;;;;;5012195;28;20174;-84
2021/06/23 03:25:42;;;;;;;18.00;6.07;;;13.80;89.90;;;;;;5080031;28;20268;-84
2021/06/23 03:28:08;;;;;;;24.07;6.03;;;13.80;90.10;;;;;;5012113;28;20289;-84
2021/06/23 03:30:34;;;;;;;28.93;6.30;;;13.80;90.00;;;;;;5080049;28;20207;-84
2021/06/23 03:33:00;;;;;;;25.67;7.93;;;13.80;89.90;;;;;;5012045;28;20252;-84
2021/06/23 03:35:26;;;;;;;15.77;5.60;;;13.70;90.00;;;;;;5079895;28;20264;-84
2021/06/23 03:37:54;;;;;;;26.53;6.33;;;13.70;90.10;;;;;;5011918;28;20170;-84
2021/06/23 03:40:21;;;;;;;22.90;6.23;;;13.70;90.10;;;;;;5011989;28;20200;-84
2021/06/23 03:42:47;;;;;;;22.33;6.17;;;13.70;90.00;;;;;;5012227;28;20173;-84
2021/06/23 03:45:14;;;;;;;22.07;6.47;;;13.60;90.20;;;;;;5011850;28;20174;-84
2021/06/23 03:47:40;;;;;;;19.97;5.73;;;13.70;90.30;;;;;;5011768;28;20205;-85
2021/06/23 03:50:07;;;;;;;20.13;6.13;;;13.70;89.90;;;;;;5011784;28;20248;-84
2021/06/23 03:52:33;;;;;;;25.20;7.40;;;13.70;90.00;;;;;;5011704;28;20177;-84
2021/06/23 03:54:59;;;;;;;22.83;6.43;;;13.80;90.00;;;;;;5079915;28;20587;-84
2021/06/23 03:57:25;;;;;;;24.67;6.13;;;13.80;90.10;;;;;;5011767;28;20188;-84
2021/06/23 03:59:51;;;;;;;24.90;5.70;;;13.70;90.00;;;;;;5079438;28;20574;-84
2021/06/23 04:02:17;;;;;;;21.67;6.37;;;13.60;90.10;;;;;;5011630;28;20543;-84
2021/06/23 04:04:45;;;;;;;25.10;6.63;;;13.70;90.10;;;;;;5079486;28;20318;-84
2021/06/23 04:07:11;;;;;;;29.90;7.40;;;13.80;90.20;;;;;;5079255;28;20181;-84
2021/06/23 04:09:37;;;;;;;26.67;6.47;;;13.80;90.00;;;;;;5011472;28;20208;-84
2021/06/23 04:12:03;;;;;;;22.27;5.80;;;13.80;89.90;;;;;;5079366;28;20274;-84
2021/06/23 04:14:28;;;;;;;23.80;6.37;;;13.80;90.40;;;;;;5079056;28;20556;-84
2021/06/23 04:16:54;;;;;;;26.00;6.43;;;13.80;90.30;;;;;;5079034;28;20177;-84
2021/06/23 04:19:20;;;;;;;32.60;6.77;;;13.90;90.40;;;;;;5011159;28;20205;-84
2021/06/23 04:21:46;;;;;;;22.87;6.70;;;13.90;90.40;;;;;;5078998;28;20184;-85
2021/06/23 04:24:12;;;;;;;22.77;6.10;;;14.00;90.20;;;;;;5079207;28;20216;-85
2021/06/23 04:26:38;;;;;;;25.87;8.13;;;14.00;90.00;;;;;;5078937;28;20197;-85
2021/06/23 04:29:04;;;;;;;27.77;6.37;;;14.00;90.00;;;;;;5078640;28;20224;-85
2021/06/23 04:31:31;;;;;;;27.23;6.73;;;14.10;89.80;;;;;;5078832;28;20236;-85
2021/06/23 04:33:57;;;;;;;25.90;6.13;;;14.20;89.60;;;;;;5011199;28;20170;-85
2021/06/23 04:36:22;;;;;;;23.00;6.20;;;14.20;89.60;;;;;;5011419;28;20186;-85
2021/06/23 04:38:48;;;;;;;15.23;5.50;;;14.30;89.40;;;;;;5078680;28;20665;-85
2021/06/23 04:41:14;;;;;;;29.57;8.23;;;14.30;89.30;;;;;;5078722;28;20188;-85
2021/06/23 04:43:39;;;;;;;24.97;6.70;;;14.40;89.20;;;;;;5078932;28;20189;-85
2021/06/23 04:46:05;;;;;;;22.60;6.33;;;14.40;89.00;;;;;;5078607;28;20184;-85
2021/06/23 04:48:32;;;;;;;23.37;5.37;;;14.40;89.00;;;;;;5010929;28;20196;-85
2021/06/23 04:50:58;;;;;;;17.00;6.03;;;14.40;88.70;;;;;;5078616;28;20238;-85
2021/06/23 04:53:25;;;;;;;30.73;6.10;;;14.30;88.80;;;;;;4991598;28;20216;-85
2021/06/23 04:55:53;;;;;;;25.77;6.27;;;14.40;88.60;;;;;;5058454;28;20178;-85
2021/06/23 04:58:19;;;;;;;24.83;6.03;;;14.30;88.80;;;;;;5058206;28;20678;-85
2021/06/23 05:00:45;;;;;;;28.83;6.33;;;14.20;88.70;;;;;;4991213;28;20178;-85
2021/06/23 05:03:10;;;;;;;22.63;6.67;;;14.30;88.80;;;;;;5058304;28;20220;-85
2021/06/23 05:05:36;;;;;;;29.23;6.73;;;14.40;89.00;;;;;;5058131;28;20190;-85
2021/06/23 05:08:02;;;;;;;22.40;5.63;;;14.50;89.00;;;;;;4991610;28;20198;-85
2021/06/23 05:10:28;;;;;;;22.47;6.47;;;14.70;89.20;;;;;;4991227;28;20546;-85
2021/06/23 05:12:53;;;;;;;20.53;6.57;;;14.70;88.70;;;;;;4991077;28;20174;-85
2021/06/23 05:15:19;;;;;;;29.83;7.70;;;14.70;88.70;;;;;;5058288;28;20278;-85
2021/06/23 05:17:45;;;;;;;18.70;6.13;;;14.90;88.90;;;;;;5058028;28;20608;-85
2021/06/23 05:20:11;;;;;;;31.30;7.03;;;15.00;88.70;;;;;;5058161;28;20171;-85
2021/06/23 05:22:37;;;;;;;17.17;6.13;;;14.90;88.30;;;;;;4990920;28;20255;-85
2021/06/23 05:25:04;;;;;;;24.33;6.97;;;14.90;88.30;;;;;;5058278;28;20224;-85
2021/06/23 05:27:29;;;;;;;23.67;6.00;;;14.90;88.40;;;;;;4990908;28;20175;-85
2021/06/23 05:29:55;;;;;;;24.10;6.37;;;15.00;88.40;;;;;;5057880;28;20197;-85
2021/06/23 05:32:21;;;;;;;20.63;6.50;;;15.10;88.40;;;;;;4990771;28;20210;-85
2021/06/23 05:34:46;;;;;;;17.90;5.33;;;15.10;87.90;;;;;;5058719;28;20182;-85
2021/06/23 05:37:12;;;;;;;26.17;6.47;;;14.90;87.80;;;;;;4994301;28;20638;-84
2021/06/23 05:39:37;;;;;;;22.03;6.10;;;14.90;87.80;;;;;;4994185;28;20201;-85
2021/06/23 05:42:04;;;;;;;17.37;6.17;;;15.00;88.30;;;;;;5061796;28;20182;-85
2021/06/23 05:44:29;;;;;;;22.33;6.13;;;15.00;88.10;;;;;;4994140;28;20181;-85
2021/06/23 05:46:56;;;;;;;26.77;6.30;;;15.10;88.20;;;;;;5061965;28;20186;-85
2021/06/23 05:49:22;;;;;;;22.67;6.30;;;15.10;88.20;;;;;;5061513;28;20206;-85
2021/06/23 05:51:47;;;;;;;28.20;6.83;;;15.10;87.90;;;;;;4994004;28;20587;-85
2021/06/23 05:54:13;;;;;;;31.47;6.17;;;15.10;88.10;;;;;;4994062;28;20256;-85
2021/06/23 05:56:39;;;;;;;17.63;5.17;;;15.10;88.20;;;;;;5061729;28;20556;-85
2021/06/23 05:59:05;;;;;;;19.27;5.20;;;15.10;87.90;;;;;;4994182;28;20247;-84
2021/06/23 06:01:30;;;;;;;29.23;5.83;;;15.00;88.00;;;;;;4993913;28;20255;-85
2021/06/23 06:03:56;;;;;;;19.70;5.53;;;15.00;88.00;;;;;;5061913;28;20634;-85
2021/06/23 06:06:22;;;;;;;28.13;6.00;;;15.00;87.70;;;;;;4993819;28;20185;-85
2021/06/23 06:08:48;;;;;;;23.10;6.40;;;15.00;87.70;;;;;;5061427;28;20202;-85
2021/06/23 06:11:14;;;;;;;23.00;5.90;;;14.80;87.90;;;;;;5061093;28;20231;-85
2021/06/23 06:13:39;;;;;;;23.33;6.50;;;14.80;87.40;;;;;;4994276;28;20200;-84
2021/06/23 06:16:05;;;;;;;18.60;5.50;;;14.80;87.80;;;;;;4994046;28;20197;-85
2021/06/23 06:18:31;;;;;;;24.07;6.80;;;14.90;87.40;;;;;;5060940;28;20585;-85
2021/06/23 06:20:58;;;;;;;26.50;5.57;;;14.90;87.70;;;;;;4993598;28;20189;-85
2021/06/23 06:23:25;;;;;;;20.03;5.70;;;15.00;87.60;;;;;;5060921;28;20182;-85
2021/06/23 06:25:51;;;;;;;20.47;5.77;;;15.00;88.10;;;;;;4993469;28;20209;-85
2021/06/23 06:28:17;;;;;;;18.70;5.87;;;15.00;88.20;;;;;;5060884;28;20209;-85
2021/06/23 06:30:43;;;;;;;23.93;5.37;;;15.10;88.10;;;;;;5060957;28;20210;-85
2021/06/23 06:33:08;;;;;;;24.87;6.60;;;15.10;88.00;;;;;;5060848;28;20178;-85
2021/06/23 06:35:35;;;;;;;21.10;5.93;;;15.10;88.10;;;;;;5061330;28;20276;-85
2021/06/23 06:38:00;;;;;;;28.97;6.53;;;15.20;88.00;;;;;;4993336;28;20198;-85
2021/06/23 06:40:26;;;;;;;19.10;5.83;;;15.20;87.80;;;;;;5060959;28;20174;-85
2021/06/23 06:42:52;;;;;;;21.47;5.80;;;15.20;87.50;;;;;;4993338;28;20554;-85
2021/06/23 06:45:19;;;;;;;21.47;5.70;;;15.20;87.00;;;;;;5060744;28;20190;-85
2021/06/23 06:47:45;;;;;;;20.87;5.80;;;15.10;87.20;;;;;;5059417;28;20182;-85
2021/06/23 06:50:11;;;;;;;21.57;5.60;;;15.20;86.90;;;;;;5060811;28;20549;-85
2021/06/23 06:52:38;;;;;;;32.23;6.47;;;15.20;87.10;;;;;;5060368;28;20267;-85
2021/06/23 06:55:08;;;;;;;12.77;4.87;;;15.30;87.30;;;;;;5060514;28;20189;-85
2021/06/23 06:57:34;;;;;;;22.27;5.53;;;15.30;86.80;;;;;;5060498;28;20182;-85
2021/06/23 07:00:00;;;;;;;21.47;5.70;;;15.30;86.60;;;;;;5060552;28;20174;-85
2021/06/23 07:02:26;;;;;;;18.83;5.40;;;15.30;86.90;;;;;;5060577;28;20179;-86
2021/06/23 07:04:52;;;;;;;9.37;4.80;;;15.40;86.60;;;;;;5060374;28;20178;-86
2021/06/23 07:07:17;;;;;;;20.60;5.50;;;15.50;86.00;;;;;;4992974;28;20178;-85
2021/06/23 07:09:43;;;;;;;16.67;5.20;;;15.40;86.20;;;;;;5060439;28;20233;-85
2021/06/23 07:12:09;;;;;;;21.10;5.97;;;15.40;86.40;;;;;;5060156;28;20209;-85
2021/06/23 07:14:35;;;;;;;13.90;5.07;;;15.50;86.50;;;;;;4993080;28;20224;-85
2021/06/23 07:17:01;;;;;;;19.17;5.30;;;15.60;85.90;;;;;;5060246;28;20182;-85
2021/06/23 07:19:26;;;;;;;17.20;4.87;;;15.60;85.70;;;;;;4992543;28;20206;-85
2021/06/23 07:21:52;;;;;;;19.67;5.40;;;15.60;86.30;;;;;;4993012;28;20657;-86
2021/06/23 07:24:19;;;;;;;17.63;5.30;;;15.70;86.20;;;;;;5060079;28;20189;-85
2021/06/23 07:26:52;;;;;;;13.07;5.03;;;15.80;86.50;;;;;;4992612;28;20525;-85
2021/06/23 07:29:18;;;;;;;15.33;5.43;;;15.80;85.90;;;;;;4992639;28;20201;-85
2021/06/23 07:31:51;;;;;;;17.00;4.63;;;16.00;85.90;;;;;;5059635;28;20293;-85
2021/06/23 07:34:34;;;;;;;14.20;4.73;;;16.00;84.40;;;;;;5059612;28;20170;-86
2021/06/23 07:37:08;;;;;;;20.50;4.88;;;16.00;84.80;;;;;;5059815;28;20257;-85
2021/06/23 07:39:35;;;;;;;20.38;5.20;;;15.90;84.00;;;;;;5059870;28;20204;-85
2021/06/23 07:42:02;;;;;;;19.85;4.57;;;16.00;84.40;;;;;;5059679;28;20183;-85
2021/06/23 07:44:41;;;;;;;15.33;4.60;;;15.90;84.30;;;;;;4992339;28;20175;-84
2021/06/23 07:47:10;;;;;;;19.30;5.40;;;15.60;84.60;;;;;;5059731;28;20206;-84
2021/06/23 07:49:37;;;;;;;17.75;4.70;;;15.60;85.20;;;;;;5059457;28;20258;-84
2021/06/23 08:11:35;;;;;;;22.87;5.87;;;16.00;85.70;;;;;;5040609;28;20214;-85
2021/06/23 08:14:03;;;;;;;19.03;6.27;;;16.20;85.50;;;;;;5059044;28;20200;-84
2021/06/23 08:16:29;;;;;;;11.90;4.63;;;16.30;85.30;;;;;;5058959;28;20292;-84
2021/06/23 08:18:55;;;;;;;25.20;5.25;;;16.30;84.40;;;;;;5058721;28;20308;-84
2021/06/23 08:21:20;;;;;;;12.25;4.00;;;16.30;84.30;;;;;;5058847;28;20182;-84
2021/06/23 08:23:46;;;;;;;22.73;5.07;;;16.50;84.70;;;;;;5058812;28;20185;-85
2021/06/23 08:26:11;;;;;;;10.93;3.60;;;16.80;84.80;;;;;;5058788;28;20327;-84
2021/06/23 08:28:37;;;;;;;13.65;4.32;;;16.90;82.50;;;;;;5058644;28;20206;-84
2021/06/23 08:31:03;;;;;;;22.17;4.57;;;16.90;82.60;;;;;;4991622;28;20201;-84
2021/06/23 08:33:29;;;;;;;11.18;4.85;;;17.20;82.50;;;;;;4991604;28;20659;-84
2021/06/23 08:35:55;;;;;;;13.18;4.80;;;17.20;80.40;;;;;;5058793;28;20619;-84
2021/06/23 08:38:22;;;;;;;20.40;4.85;;;17.10;81.00;;;;;;4991518;28;20601;-84
2021/06/23 08:40:48;;;;;;;11.68;4.20;;;17.30;81.60;;;;;;5058474;28;20201;-84
2021/06/23 08:43:18;;;;;;;15.95;4.60;;;17.30;80.40;;;;;;5058663;28;20703;-84
2021/06/23 08:45:44;;;;;;;17.25;5.43;;;17.40;80.60;;;;;;4991567;28;20250;-85
2021/06/23 08:48:11;;;;;;;11.55;3.97;;;17.60;79.80;;;;;;4991300;28;20197;-84
2021/06/23 08:50:38;;;;;;;11.35;3.97;;;17.30;79.90;;;;;;4991320;28;20713;-84
2021/06/23 08:53:04;;;;;;;19.02;4.30;;;17.40;81.10;;;;;;4991353;28;20198;-85
2021/06/23 08:55:30;;;;;;;15.18;4.25;;;17.50;80.20;;;;;;5058284;28;20212;-85
2021/06/23 08:57:55;;;;;;;13.88;5.28;;;17.60;80.10;;;;;;4991293;28;20201;-85
2021/06/23 09:00:26;;;;;;;21.65;5.90;;;17.30;79.10;;;;;;5058371;28;20174;-85
2021/06/23 09:02:52;;;;;;;13.98;4.20;;;17.40;80.50;;;;;;5058394;28;20645;-85
2021/06/23 09:05:19;;;;;;;10.80;3.47;;;17.80;80.50;;;;;;4991387;28;20688;-87
2021/06/23 09:07:55;;;;;;;14.52;3.80;;;17.70;78.80;;;;;;4991241;28;20170;-87
2021/06/23 09:10:24;;;;;;;17.92;4.72;;;18.00;80.20;;;;;;5057735;28;20629;-88
2021/06/23 09:13:13;;;;;;;21.65;4.05;;;18.30;79.10;;;;;;5058261;28;20269;-87
2021/06/23 09:15:58;;;;;;;11.13;4.28;;;18.10;76.50;;;;;;5059237;28;20158;-88
2021/06/23 09:18:35;;;;;;;9.75;3.33;;;18.30;76.90;;;;;;5141408;23;20209;-84
2021/06/23 09:21:19;;;;;;;12.27;4.00;;;18.60;76.20;;;;;;4973705;28;20214;-85
2021/06/23 09:23:59;;;;;;;12.55;4.25;;;18.60;76.40;;;;;;4973608;28;20311;-85
2021/06/23 09:26:33;;;;;;;9.50;3.50;;;18.60;73.60;;;;;;4990981;28;20633;-85
2021/06/23 09:29:18;;;;;;;13.88;3.72;;;18.50;74.50;;;;;;4990874;28;20193;-85
2021/06/23 09:31:59;;;;;;;10.63;3.63;;;19.20;75.60;;;;;;4990795;28;20201;-84
2021/06/23 09:34:35;;;;;;;11.82;3.53;;;19.00;74.80;;;;;;4973373;28;20178;-84
2021/06/23 09:37:21;;;;;;;8.98;3.30;;;19.10;74.10;;;;;;4973547;28;20181;-84
2021/06/23 09:39:46;;;;;;;8.43;3.40;;;18.90;72.50;;;;;;4990709;28;20201;-83
2021/06/23 09:42:13;;;;;;;8.63;3.17;;;18.70;74.50;;;;;;4990757;28;20174;-84
2021/06/23 09:44:40;;;;;;;8.65;2.78;;;18.60;73.40;;;;;;4973346;28;20213;-84
2021/06/23 09:47:06;;;;;;;8.77;3.30;;;18.30;75.60;;;;;;4990775;28;20178;-84
2021/06/23 09:49:37;;;;;;;6.60;2.30;;;18.60;75.50;;;;;;4990561;28;20323;-84
2021/06/23 09:52:13;;;;;;;13.73;2.50;;;18.70;75.90;;;;;;4989573;28;20201;-84
2021/06/23 09:55:05;;;;;;;10.77;3.22;;;18.60;75.10;;;;;;4990654;28;20170;-84
2021/06/23 09:57:31;;;;;;;7.15;2.90;;;18.70;73.40;;;;;;4987378;28;20228;-84
2021/06/23 10:00:09;;;;;;;7.65;2.95;;;18.20;74.30;;;;;;4990503;28;20222;-84
2021/06/23 10:02:35;;;;;;;8.45;2.53;;;18.30;74.20;;;;;;4990979;28;20257;-84
2021/06/23 10:05:21;;;;;;;11.27;3.13;;;18.20;73.70;;;;;;4973075;28;20336;-84
2021/06/23 10:07:49;;;;;;;6.15;2.35;;;18.30;75.60;;;;;;4959998;28;20205;-84
2021/06/23 10:10:21;;;;;;;8.52;2.72;;;18.30;76.20;;;;;;4973068;28;20582;-84
2021/06/23 10:12:53;;;;;;;7.38;2.65;;;18.60;75.00;;;;;;4991081;28;20542;-84
2021/06/23 10:15:19;;;;;;;9.80;2.90;;;18.50;75.70;;;;;;4973113;28;20174;-84
2021/06/23 10:17:45;;;;;;;13.13;2.92;;;18.50;74.70;;;;;;4990473;28;20174;-84
2021/06/23 10:20:14;;;;;;;7.38;2.50;;;18.70;74.70;;;;;;4990128;28;20210;-85
2021/06/23 10:22:42;;;;;;;7.10;2.42;;;18.90;74.40;;;;;;4993628;28;20174;-84
2021/06/23 10:25:10;;;;;;;7.32;2.47;;;19.10;72.60;;;;;;4976351;28;20178;-84
2021/06/23 10:27:40;;;;;;;5.45;2.25;;;19.00;72.80;;;;;;4993910;28;20174;-84
2021/06/23 10:30:07;;;;;;;9.95;3.33;;;18.90;71.00;;;;;;4993499;28;20205;-84
2021/06/23 10:32:33;;;;;;;8.15;2.50;;;18.90;72.00;;;;;;4993426;28;20742;-84
2021/06/23 10:34:58;;;;;;;6.45;2.20;;;19.00;71.40;;;;;;4993480;28;20174;-83
2021/06/23 10:37:24;;;;;;;7.18;2.38;;;19.10;70.70;;;;;;4976107;28;20174;-84
2021/06/23 10:39:52;;;;;;;8.27;2.30;;;18.90;74.20;;;;;;4975964;28;20198;-83
2021/06/23 10:42:22;;;;;;;9.18;2.47;;;19.30;73.30;;;;;;4976005;28;20182;-84
2021/06/23 10:44:54;;;;;;;7.30;2.22;;;19.30;72.40;;;;;;4993390;28;20182;-84
2021/06/23 10:47:37;;;;;;;3.75;1.90;;;19.30;71.50;;;;;;4975992;28;20170;-84
2021/06/23 10:50:04;;;;;;;5.03;2.20;;;19.60;72.70;;;;;;4975840;28;20209;-84
2021/06/23 10:52:30;;;;;;;7.50;2.17;;;19.80;71.60;;;;;;4993218;28;20198;-84
2021/06/23 10:55:20;;;;;;;7.53;2.30;;;20.20;70.70;;;;;;4976160;28;20192;-84
2021/06/23 10:57:48;;;;;;;3.38;2.08;;;20.10;72.50;;;;;;4993483;28;20557;-83
2021/06/23 11:00:17;;;;;;;6.60;2.40;;;20.10;71.40;;;;;;4993255;28;20186;-84
2021/06/23 11:02:46;;;;;;;6.93;2.00;;;20.20;69.70;;;;;;4975646;28;20182;-85
2021/06/23 11:05:22;;;;;;;11.15;2.15;;;20.30;67.40;;;;;;4993172;28;20175;-85
2021/06/23 11:07:52;;;;;;;8.60;2.15;;;20.40;68.10;;;;;;4993706;28;20158;-84
2021/06/23 11:10:30;;;;;;;4.82;1.90;;;20.70;71.30;;;;;;4993256;28;20225;-84
2021/06/23 11:13:00;;;;;;;2.80;1.83;;;21.20;66.50;;;;;;4975858;28;20740;-84
2021/06/23 11:15:33;;;;;;;4.45;1.95;;;21.20;66.80;;;;;;4993495;28;20214;-84
2021/06/23 11:18:17;;;;;;;8.20;2.53;;;21.10;65.50;;;;;;4993405;28;20166;-84
2021/06/23 11:20:47;;;;;;;9.65;1.95;;;20.50;67.10;;;;;;4975497;28;20204;-84
2021/06/23 11:23:51;;;;;;;7.05;2.88;;;20.50;67.30;;;;;;4995278;28;20178;-85
2021/06/23 11:26:22;;;;;;;7.47;2.25;;;20.40;67.50;;;;;;4994357;28;20250;-85
2021/06/23 11:28:55;;;;;;;10.20;2.78;;;20.60;66.70;;;;;;4976859;28;20281;-84
2021/06/23 11:31:22;;;;;;;5.50;2.53;;;20.70;66.60;;;;;;4976320;28;20229;-85
2021/06/23 11:33:58;;;;;;;5.55;2.20;;;20.70;68.00;;;;;;4993369;28;20196;-83
2021/06/23 11:36:25;;;;;;;8.88;2.05;;;20.70;68.60;;;;;;4994012;28;20233;-84
2021/06/23 11:38:53;;;;;;;5.57;2.08;;;20.80;67.30;;;;;;4993783;28;20194;-84
2021/06/23 11:41:20;;;;;;;3.08;1.90;;;21.00;67.10;;;;;;4992660;28;20234;-85
2021/06/23 11:43:45;;;;;;;9.35;2.10;;;20.90;66.70;;;;;;4993249;28;20255;-85
2021/06/23 11:46:12;;;;;;;9.40;3.08;;;21.00;65.50;;;;;;4993337;28;20532;-85
2021/06/23 11:48:38;;;;;;;14.57;2.35;;;21.00;67.00;;;;;;4992534;28;20277;-84
2021/06/23 11:51:05;;;;;;;7.60;1.90;;;20.90;67.50;;;;;;4975088;28;20225;-86
2021/06/23 11:53:32;;;;;;;6.22;1.98;;;21.30;64.70;;;;;;4992456;28;20182;-84
2021/06/23 11:55:58;;;;;;;7.65;1.77;;;21.60;65.70;;;;;;4974856;28;20182;-84
2021/06/23 11:58:23;;;;;;;8.20;1.83;;;21.70;65.00;;;;;;4992182;28;20669;-84
2021/06/23 12:00:49;;;;;;;3.83;1.73;;;21.60;64.30;;;;;;4992178;28;20185;-84
2021/06/23 12:03:17;;;;;;;3.58;1.45;;;21.80;64.30;;;;;;4992151;28;20198;-84
2021/06/23 12:05:43;;;;;;;5.85;2.10;;;22.00;62.50;;;;;;4974725;28;20562;-84
2021/06/23 12:08:09;;;;;;;5.15;2.10;;;21.40;62.40;;;;;;4991956;28;20175;-86
2021/06/23 12:10:37;;;;;;;4.05;1.90;;;21.90;63.70;;;;;;4974586;28;20182;-85
2021/06/23 12:13:03;;;;;;;6.50;1.98;;;21.70;62.00;;;;;;4990784;28;20174;-85
2021/06/23 12:15:30;;;;;;;5.90;1.92;;;21.70;63.60;;;;;;4974569;28;20181;-86
2021/06/23 12:18:05;;;;;;;7.03;1.73;;;22.10;61.90;;;;;;4992338;28;20634;-85
2021/06/23 12:20:33;;;;;;;7.40;1.90;;;22.00;61.40;;;;;;4992033;28;20665;-85
2021/06/23 12:23:01;;;;;;;6.00;1.60;;;22.30;60.30;;;;;;4991868;28;20314;-85
2021/06/23 12:25:29;;;;;;;5.15;1.52;;;22.40;61.10;;;;;;4991933;28;20170;-85
2021/06/23 12:27:56;;;;;;;5.90;1.80;;;22.30;61.30;;;;;;4990577;28;20174;-84
2021/06/23 12:30:26;;;;;;;5.95;1.50;;;21.90;62.00;;;;;;4974338;28;20232;-85
2021/06/23 12:32:52;;;;;;;4.90;1.40;;;21.90;61.70;;;;;;4974274;28;20183;-84
2021/06/23 12:35:18;;;;;;;5.30;1.77;;;22.20;60.20;;;;;;4974248;28;20178;-85
2021/06/23 12:37:43;;;;;;;6.13;1.77;;;22.10;60.40;;;;;;4974172;28;20185;-84
2021/06/23 12:40:09;;;;;;;6.68;1.40;;;22.20;60.20;;;;;;4990276;28;20198;-84
2021/06/23 12:42:35;;;;;;;4.63;1.55;;;21.80;60.50;;;;;;4991687;28;20204;-85
2021/06/23 12:45:01;;;;;;;3.72;1.48;;;22.00;62.50;;;;;;4972961;28;20186;-85
2021/06/23 12:47:26;;;;;;;3.95;1.40;;;22.50;59.20;;;;;;4974078;28;20653;-85
2021/06/23 12:49:52;;;;;;;4.25;1.70;;;22.60;60.00;;;;;;4991326;28;20197;-84
2021/06/23 12:52:17;;;;;;;4.70;1.80;;;22.60;60.60;;;;;;4990104;28;20259;-84
2021/06/23 12:54:43;;;;;;;5.28;1.63;;;23.10;57.90;;;;;;4973997;28;20178;-85
2021/06/23 12:57:09;;;;;;;3.80;1.35;;;23.20;57.80;;;;;;4974003;28;20181;-84
2021/06/23 12:59:34;;;;;;;3.30;1.35;;;23.20;56.80;;;;;;4991330;28;20186;-84
2021/06/23 13:02:00;;;;;;;3.70;1.67;;;22.90;59.70;;;;;;4991539;28;20731;-84
2021/06/23 13:04:27;;;;;;;4.47;1.50;;;23.30;56.30;;;;;;4973842;28;20174;-84